sensor_id;sensor_type;location;lat;lon;timestamp;P1;durP1;ratioP1;P2;durP2;ratioP2
71162;SDS011;58858;50.948;6.566;2023-08-01T00:02:03;0.55;;;0.10;;
71162;SDS011;58858;50.948;6.566;2023-08-01T00:12:05;1.38;;;0.28;;
71162;SDS011;58858;50.948;6.566;2023-08-01T00:22:06;0.15;;;0.03;;
71162;SDS011;58858;50.948;6.566;2023-08-01T00:32:07;0.55;;;0.20;;
71162;SDS011;58858;50.948;6.566;2023-08-01T00:42:08;1.10;;;0.17;;
71162;SDS011;58858;50.948;6.566;2023-08-01T00:52:09;0.40;;;0.30;;
71162;SDS011;58858;50.948;6.566;2023-08-01T01:02:10;1.00;;;0.20;;
71162;SDS011;58858;50.948;6.566;2023-08-01T01:12:12;3.35;;;0.40;;
71162;SDS011;58858;50.948;6.566;2023-08-01T01:22:16;0.45;;;0.20;;
71162;SDS011;58858;50.948;6.566;2023-08-01T01:32:17;1.65;;;0.17;;
71162;SDS011;58858;50.948;6.566;2023-08-01T01:42:19;2.15;;;0.50;;
71162;SDS011;58858;50.948;6.566;2023-08-01T01:52:20;0.57;;;0.30;;
71162;SDS011;58858;50.948;6.566;2023-08-01T02:02:21;1.58;;;0.32;;
71162;SDS011;58858;50.948;6.566;2023-08-01T02:12:22;2.78;;;1.20;;
71162;SDS011;58858;50.948;6.566;2023-08-01T02:22:24;0.63;;;0.47;;
71162;SDS011;58858;50.948;6.566;2023-08-01T02:32:26;0.90;;;0.70;;
71162;SDS011;58858;50.948;6.566;2023-08-01T02:42:27;1.45;;;0.80;;
71162;SDS011;58858;50.948;6.566;2023-08-01T02:52:28;2.80;;;0.90;;
71162;SDS011;58858;50.948;6.566;2023-08-01T03:02:30;2.30;;;1.00;;
71162;SDS011;58858;50.948;6.566;2023-08-01T03:12:32;4.63;;;1.90;;
71162;SDS011;58858;50.948;6.566;2023-08-01T03:22:33;6.38;;;2.58;;
71162;SDS011;58858;50.948;6.566;2023-08-01T03:32:35;4.78;;;2.47;;
71162;SDS011;58858;50.948;6.566;2023-08-01T03:42:37;4.78;;;3.33;;
71162;SDS011;58858;50.948;6.566;2023-08-01T03:52:38;4.78;;;3.90;;
71162;SDS011;58858;50.948;6.566;2023-08-01T04:02:42;7.57;;;3.42;;
71162;SDS011;58858;50.948;6.566;2023-08-01T04:12:43;10.90;;;4.43;;
71162;SDS011;58858;50.948;6.566;2023-08-01T04:22:45;7.90;;;4.15;;
71162;SDS011;58858;50.948;6.566;2023-08-01T04:32:46;10.70;;;4.93;;
71162;SDS011;58858;50.948;6.566;2023-08-01T04:42:47;12.48;;;5.47;;
71162;SDS011;58858;50.948;6.566;2023-08-01T04:52:48;9.82;;;4.43;;
71162;SDS011;58858;50.948;6.566;2023-08-01T05:02:49;9.60;;;4.28;;
71162;SDS011;58858;50.948;6.566;2023-08-01T05:12:50;8.98;;;3.92;;
71162;SDS011;58858;50.948;6.566;2023-08-01T05:22:51;6.95;;;3.33;;
71162;SDS011;58858;50.948;6.566;2023-08-01T05:32:52;5.38;;;3.38;;
71162;SDS011;58858;50.948;6.566;2023-08-01T05:42:54;10.10;;;5.10;;
71162;SDS011;58858;50.948;6.566;2023-08-01T05:52:55;9.90;;;4.35;;
71162;SDS011;58858;50.948;6.566;2023-08-01T06:02:56;7.75;;;3.97;;
71162;SDS011;58858;50.948;6.566;2023-08-01T06:12:57;8.25;;;4.00;;
71162;SDS011;58858;50.948;6.566;2023-08-01T06:22:59;9.43;;;3.67;;
71162;SDS011;58858;50.948;6.566;2023-08-01T06:33:00;10.38;;;4.55;;
71162;SDS011;58858;50.948;6.566;2023-08-01T06:43:01;6.50;;;3.78;;
71162;SDS011;58858;50.948;6.566;2023-08-01T06:53:02;7.72;;;4.72;;
71162;SDS011;58858;50.948;6.566;2023-08-01T07:03:03;8.50;;;4.65;;
71162;SDS011;58858;50.948;6.566;2023-08-01T07:13:04;5.70;;;3.47;;
71162;SDS011;58858;50.948;6.566;2023-08-01T07:23:06;11.70;;;4.13;;
71162;SDS011;58858;50.948;6.566;2023-08-01T07:33:07;9.75;;;3.63;;
71162;SDS011;58858;50.948;6.566;2023-08-01T07:43:08;8.48;;;3.30;;
71162;SDS011;58858;50.948;6.566;2023-08-01T07:53:09;10.15;;;3.97;;
71162;SDS011;58858;50.948;6.566;2023-08-01T08:03:10;9.15;;;4.85;;
71162;SDS011;58858;50.948;6.566;2023-08-01T08:13:11;6.47;;;4.00;;
71162;SDS011;58858;50.948;6.566;2023-08-01T08:23:12;5.28;;;2.90;;
71162;SDS011;58858;50.948;6.566;2023-08-01T08:33:19;7.10;;;3.88;;
71162;SDS011;58858;50.948;6.566;2023-08-01T08:43:20;6.00;;;2.70;;
71162;SDS011;58858;50.948;6.566;2023-08-01T08:53:22;8.85;;;3.08;;
71162;SDS011;58858;50.948;6.566;2023-08-01T09:03:23;9.55;;;4.47;;
71162;SDS011;58858;50.948;6.566;2023-08-01T09:13:24;6.95;;;2.55;;
71162;SDS011;58858;50.948;6.566;2023-08-01T09:23:26;6.78;;;2.63;;
71162;SDS011;58858;50.948;6.566;2023-08-01T09:33:37;8.55;;;3.35;;
71162;SDS011;58858;50.948;6.566;2023-08-01T09:43:41;8.50;;;3.15;;
71162;SDS011;58858;50.948;6.566;2023-08-01T09:53:53;9.55;;;3.22;;
71162;SDS011;58858;50.948;6.566;2023-08-01T10:03:55;7.05;;;4.00;;
71162;SDS011;58858;50.948;6.566;2023-08-01T10:13:57;3.95;;;2.08;;
71162;SDS011;58858;50.948;6.566;2023-08-01T10:23:58;6.65;;;2.80;;
71162;SDS011;58858;50.948;6.566;2023-08-01T10:34:06;7.13;;;2.45;;
71162;SDS011;58858;50.948;6.566;2023-08-01T10:44:14;4.55;;;2.35;;
71162;SDS011;58858;50.948;6.566;2023-08-01T10:54:22;4.75;;;2.70;;
71162;SDS011;58858;50.948;6.566;2023-08-01T11:04:24;3.88;;;2.28;;
71162;SDS011;58858;50.948;6.566;2023-08-01T11:14:26;3.50;;;1.90;;
71162;SDS011;58858;50.948;6.566;2023-08-01T11:24:28;5.25;;;1.67;;
71162;SDS011;58858;50.948;6.566;2023-08-01T11:34:38;2.67;;;1.40;;
71162;SDS011;58858;50.948;6.566;2023-08-01T11:44:46;7.45;;;2.13;;
71162;SDS011;58858;50.948;6.566;2023-08-01T11:54:47;4.20;;;2.40;;
71162;SDS011;58858;50.948;6.566;2023-08-01T12:04:49;3.13;;;1.50;;
71162;SDS011;58858;50.948;6.566;2023-08-01T12:14:50;3.75;;;1.70;;
71162;SDS011;58858;50.948;6.566;2023-08-01T12:24:52;5.43;;;1.90;;
71162;SDS011;58858;50.948;6.566;2023-08-01T12:34:53;3.08;;;1.75;;
71162;SDS011;58858;50.948;6.566;2023-08-01T12:44:54;3.22;;;1.10;;
71162;SDS011;58858;50.948;6.566;2023-08-01T12:54:55;2.85;;;1.63;;
71162;SDS011;58858;50.948;6.566;2023-08-01T13:04:57;4.53;;;1.40;;
71162;SDS011;58858;50.948;6.566;2023-08-01T13:14:58;3.50;;;1.83;;
71162;SDS011;58858;50.948;6.566;2023-08-01T13:25:00;4.65;;;1.75;;
71162;SDS011;58858;50.948;6.566;2023-08-01T13:35:02;4.53;;;1.60;;
71162;SDS011;58858;50.948;6.566;2023-08-01T13:45:04;7.32;;;1.88;;
71162;SDS011;58858;50.948;6.566;2023-08-01T13:55:05;3.10;;;2.03;;
71162;SDS011;58858;50.948;6.566;2023-08-01T14:05:08;5.88;;;3.10;;
71162;SDS011;58858;50.948;6.566;2023-08-01T14:15:11;6.45;;;2.22;;
71162;SDS011;58858;50.948;6.566;2023-08-01T14:25:12;4.65;;;1.83;;
71162;SDS011;58858;50.948;6.566;2023-08-01T14:35:13;6.22;;;1.75;;
71162;SDS011;58858;50.948;6.566;2023-08-01T14:45:14;5.75;;;2.53;;
71162;SDS011;58858;50.948;6.566;2023-08-01T14:55:16;2.60;;;1.35;;
71162;SDS011;58858;50.948;6.566;2023-08-01T15:05:17;7.10;;;1.80;;
71162;SDS011;58858;50.948;6.566;2023-08-01T15:15:18;3.67;;;1.60;;
71162;SDS011;58858;50.948;6.566;2023-08-01T15:25:20;3.45;;;1.50;;
71162;SDS011;58858;50.948;6.566;2023-08-01T15:35:28;4.00;;;1.42;;
71162;SDS011;58858;50.948;6.566;2023-08-01T15:45:30;4.80;;;1.00;;
71162;SDS011;58858;50.948;6.566;2023-08-01T15:55:31;3.33;;;2.00;;
71162;SDS011;58858;50.948;6.566;2023-08-01T16:05:32;2.45;;;1.95;;
71162;SDS011;58858;50.948;6.566;2023-08-01T16:15:59;5.20;;;1.52;;
71162;SDS011;58858;50.948;6.566;2023-08-01T16:26:00;4.85;;;1.40;;
71162;SDS011;58858;50.948;6.566;2023-08-01T16:36:03;1.40;;;0.90;;
71162;SDS011;58858;50.948;6.566;2023-08-01T16:46:05;4.40;;;1.88;;
71162;SDS011;58858;50.948;6.566;2023-08-01T16:56:06;6.40;;;1.35;;
71162;SDS011;58858;50.948;6.566;2023-08-01T17:06:08;3.45;;;1.48;;
71162;SDS011;58858;50.948;6.566;2023-08-01T17:16:09;2.85;;;1.30;;
71162;SDS011;58858;50.948;6.566;2023-08-01T17:26:10;2.83;;;1.25;;
71162;SDS011;58858;50.948;6.566;2023-08-01T17:36:11;2.17;;;1.30;;
71162;SDS011;58858;50.948;6.566;2023-08-01T17:46:12;6.65;;;2.28;;
71162;SDS011;58858;50.948;6.566;2023-08-01T17:56:14;4.32;;;1.60;;
71162;SDS011;58858;50.948;6.566;2023-08-01T18:06:16;5.32;;;1.92;;
71162;SDS011;58858;50.948;6.566;2023-08-01T18:16:21;8.73;;;2.08;;
71162;SDS011;58858;50.948;6.566;2023-08-01T18:26:24;6.03;;;1.67;;
71162;SDS011;58858;50.948;6.566;2023-08-01T18:36:26;6.43;;;1.60;;
71162;SDS011;58858;50.948;6.566;2023-08-01T18:46:28;4.80;;;1.75;;
71162;SDS011;58858;50.948;6.566;2023-08-01T18:56:32;7.80;;;2.20;;
71162;SDS011;58858;50.948;6.566;2023-08-01T19:06:33;5.35;;;1.83;;
71162;SDS011;58858;50.948;6.566;2023-08-01T19:16:34;5.53;;;1.90;;
71162;SDS011;58858;50.948;6.566;2023-08-01T19:26:35;9.70;;;2.00;;
71162;SDS011;58858;50.948;6.566;2023-08-01T19:36:36;5.68;;;1.77;;
71162;SDS011;58858;50.948;6.566;2023-08-01T19:46:37;10.20;;;1.70;;
71162;SDS011;58858;50.948;6.566;2023-08-01T19:56:38;7.97;;;2.55;;
71162;SDS011;58858;50.948;6.566;2023-08-01T20:06:40;3.60;;;2.10;;
71162;SDS011;58858;50.948;6.566;2023-08-01T20:16:41;5.60;;;1.88;;
71162;SDS011;58858;50.948;6.566;2023-08-01T20:26:44;7.20;;;2.00;;
71162;SDS011;58858;50.948;6.566;2023-08-01T20:36:48;5.65;;;1.95;;
71162;SDS011;58858;50.948;6.566;2023-08-01T20:46:50;3.42;;;1.75;;
71162;SDS011;58858;50.948;6.566;2023-08-01T20:56:51;3.47;;;1.50;;
71162;SDS011;58858;50.948;6.566;2023-08-01T21:06:52;5.95;;;1.98;;
71162;SDS011;58858;50.948;6.566;2023-08-01T21:16:53;6.95;;;2.00;;
71162;SDS011;58858;50.948;6.566;2023-08-01T21:26:54;5.85;;;2.00;;
71162;SDS011;58858;50.948;6.566;2023-08-01T21:36:55;6.70;;;2.30;;
71162;SDS011;58858;50.948;6.566;2023-08-01T21:46:56;4.80;;;2.80;;
71162;SDS011;58858;50.948;6.566;2023-08-01T21:56:57;7.40;;;1.63;;
71162;SDS011;58858;50.948;6.566;2023-08-01T22:06:58;6.60;;;1.40;;
71162;SDS011;58858;50.948;6.566;2023-08-01T22:17:00;4.38;;;1.80;;
71162;SDS011;58858;50.948;6.566;2023-08-01T22:27:04;8.32;;;2.88;;
71162;SDS011;58858;50.948;6.566;2023-08-01T22:37:05;5.35;;;1.30;;
71162;SDS011;58858;50.948;6.566;2023-08-01T22:47:06;4.05;;;1.58;;
71162;SDS011;58858;50.948;6.566;2023-08-01T22:57:08;3.30;;;1.40;;
71162;SDS011;58858;50.948;6.566;2023-08-01T23:07:09;6.93;;;2.55;;
71162;SDS011;58858;50.948;6.566;2023-08-01T23:17:10;5.65;;;1.83;;
71162;SDS011;58858;50.948;6.566;2023-08-01T23:27:12;4.18;;;1.95;;
71162;SDS011;58858;50.948;6.566;2023-08-01T23:37:13;4.75;;;1.48;;
71162;SDS011;58858;50.948;6.566;2023-08-01T23:47:14;4.20;;;1.52;;
71162;SDS011;58858;50.948;6.566;2023-08-01T23:57:15;1.98;;;1.25;;
